^^
Saratoga-Weather Station Historical Data
Daily Summary for September 24, 2021 Units:  Metric    English   Both
Daily Weekly Monthly Yearly Custom
  High: Low: Average:
Temperature: 6.8 °C -1.2 °C 3.5 °C
Dew Point: 3.3 °C -2 °C 1.5 °C
Humidity: 95% 71% 87%
Wind Speed: 13km/h 0km/h 1.6km/h
Wind Gust: 19.3km/h - -
Wind- - ESE
Pressure: 1026.8 hPa 1012.9 hPa -
Precipitation: 0.0 mm    
Historical Graphs
 
 
Tabular Data for September 24, 2021
Time Temperature Dew Point Pressure Wind Wind Speed Wind Gust Humidity Rainfall Rate (Hourly) solar
00:03 4.1 °C 2.8 °C 1026.8 hPa Calm     91% 0.0 mm 0 W/m2
00:08 4 °C 2.7 °C 1026.8 hPa Calm     91% 0.0 mm 0 W/m2
00:13 3.9 °C 2.6 °C 1026.8 hPa East 1.4 km/h 1.6 km/h 91% 0.0 mm 0 W/m2
00:18 3.8 °C 2.6 °C 1026.8 hPa Calm   1.6 km/h 92% 0.0 mm 0 W/m2
00:23 3.8 °C 2.6 °C 1026.8 hPa Calm   1.6 km/h 92% 0.0 mm 0 W/m2
00:28 3.8 °C 2.6 °C 1026.8 hPa NE 1.4 km/h 3.2 km/h 92% 0.0 mm 0 W/m2
00:33 3.8 °C 2.6 °C 1026.4 hPa Calm   1.6 km/h 92% 0.0 mm 0 W/m2
00:38 3.8 °C 2.8 °C 1026.4 hPa Calm   3.2 km/h 93% 0.0 mm 0 W/m2
00:43 3.7 °C 2.7 °C 1026.4 hPa Calm   1.6 km/h 93% 0.0 mm 0 W/m2
00:48 3.7 °C 2.7 °C 1026.4 hPa Calm     93% 0.0 mm 0 W/m2
00:53 3.7 °C 2.7 °C 1026.1 hPa Calm   1.6 km/h 93% 0.0 mm 0 W/m2
00:58 3.6 °C 2.6 °C 1026.1 hPa Calm     93% 0.0 mm 0 W/m2
01:03 3.5 °C 2.3 °C 1026.1 hPa Calm   4.8 km/h 92% 0.0 mm 0 W/m2
01:08 3.4 °C 2.4 °C 1026.1 hPa Calm   3.2 km/h 93% 0.0 mm 0 W/m2
01:13 3.4 °C 2.4 °C 1026.1 hPa Calm     93% 0.0 mm 0 W/m2
01:18 3.3 °C 2.3 °C 1026.1 hPa Calm     93% 0.0 mm 0 W/m2
01:23 3.2 °C 2.2 °C 1026.1 hPa Calm     93% 0.0 mm 0 W/m2
01:28 3.1 °C 2.1 °C 1025.7 hPa Calm     93% 0.0 mm 0 W/m2
01:33 3 °C 2 °C 1025.7 hPa Calm     93% 0.0 mm 0 W/m2
01:38 2.9 °C 1.9 °C 1025.7 hPa Calm     93% 0.0 mm 0 W/m2
01:43 2.9 °C 1.9 °C 1025.7 hPa Calm     93% 0.0 mm 0 W/m2
01:48 2.8 °C 1.9 °C 1025.7 hPa Calm     94% 0.0 mm 0 W/m2
01:53 2.7 °C 1.7 °C 1025.7 hPa Calm   4.8 km/h 93% 0.0 mm 0 W/m2
01:58 2.6 °C 1.6 °C 1025.7 hPa Calm     93% 0.0 mm 0 W/m2
02:03 2.4 °C 1.5 °C 1025.7 hPa SW 1.4 km/h 3.2 km/h 94% 0.0 mm 0 W/m2
02:08 2.5 °C 1.6 °C 1025.7 hPa Calm   1.6 km/h 94% 0.0 mm 0 W/m2
02:13 2.4 °C 1.5 °C 1025.7 hPa SW 1.4 km/h 3.2 km/h 94% 0.0 mm 0 W/m2
02:18 2.4 °C 1.5 °C 1025.7 hPa SW 1.4 km/h 1.6 km/h 94% 0.0 mm 0 W/m2
02:23 2.4 °C 1.5 °C 1025.7 hPa Calm   1.6 km/h 94% 0.0 mm 0 W/m2
02:28 2.3 °C 1.4 °C 1025.7 hPa Calm     94% 0.0 mm 0 W/m2
02:33 2.3 °C 1.4 °C 1025.7 hPa West 1.4 km/h 4.8 km/h 94% 0.0 mm 0 W/m2
02:38 2.4 °C 1.5 °C 1025.4 hPa Calm   3.2 km/h 94% 0.0 mm 0 W/m2
02:43 2.4 °C 1.5 °C 1025.4 hPa Calm     94% 0.0 mm 0 W/m2
02:48 2.3 °C 1.4 °C 1025.4 hPa Calm     94% 0.0 mm 0 W/m2
02:53 2.3 °C 1.4 °C 1025.4 hPa Calm     94% 0.0 mm 0 W/m2
02:58 2.2 °C 1.3 °C 1025.4 hPa Calm     94% 0.0 mm 0 W/m2
03:03 2.1 °C 1.2 °C 1025.4 hPa Calm     94% 0.0 mm 0 W/m2
03:08 2 °C 1.1 °C 1025.4 hPa Calm     94% 0.0 mm 0 W/m2
03:13 1.9 °C 1 °C 1025.4 hPa Calm     94% 0.0 mm 0 W/m2
03:18 2 °C 1.3 °C 1025.4 hPa Calm   1.6 km/h 95% 0.0 mm 0 W/m2
03:23 2.1 °C 1.4 °C 1025.1 hPa Calm     95% 0.0 mm 0 W/m2
03:28 2.2 °C 1.5 °C 1025.1 hPa West 3.2 km/h 3.2 km/h 95% 0.0 mm 0 W/m2
03:33 2.4 °C 1.7 °C 1025.1 hPa Calm   1.6 km/h 95% 0.0 mm 0 W/m2
03:43 2.7 °C 2 °C 1025.1 hPa West 1.4 km/h 1.6 km/h 95% 0.0 mm 0 W/m2
03:48 2.7 °C 2 °C 1025.1 hPa Calm   4.8 km/h 95% 0.0 mm 0 W/m2
03:53 2.8 °C 2.1 °C 1025.1 hPa WNW 1.4 km/h 3.2 km/h 95% 0.0 mm 0 W/m2
03:58 2.8 °C 2.1 °C 1025.1 hPa Calm   1.6 km/h 95% 0.0 mm 0 W/m2
04:03 2.9 °C 2.2 °C 1025.1 hPa Calm   1.6 km/h 95% 0.0 mm 0 W/m2
04:08 2.9 °C 2.2 °C 1025.1 hPa West 3.2 km/h 3.2 km/h 95% 0.0 mm 0 W/m2
04:13 2.9 °C 2.2 °C 1024.7 hPa Calm   4.8 km/h 95% 0.0 mm 0 W/m2
04:18 3 °C 2.3 °C 1024.7 hPa Calm   1.6 km/h 95% 0.0 mm 0 W/m2
04:23 3 °C 2.3 °C 1024.7 hPa Calm   4.8 km/h 95% 0.0 mm 0 W/m2
04:28 3 °C 2.3 °C 1024.4 hPa Calm   1.6 km/h 95% 0.0 mm 0 W/m2
04:33 3.1 °C 2.4 °C 1024.7 hPa Calm   1.6 km/h 95% 0.0 mm 0 W/m2
04:39 3.1 °C 2.4 °C 1024.4 hPa WNW 1.4 km/h 3.2 km/h 95% 0.0 mm 0 W/m2
04:44 3.1 °C 2.4 °C 1024.4 hPa NW 1.4 km/h 3.2 km/h 95% 0.0 mm 0 W/m2
04:49 3.2 °C 2.5 °C 1024.4 hPa Calm     95% 0.0 mm 0 W/m2
04:54 3.2 °C 2.5 °C 1024.0 hPa Calm   4.8 km/h 95% 0.0 mm 0 W/m2
04:59 3.2 °C 2.5 °C 1024.0 hPa Calm   3.2 km/h 95% 0.0 mm 0 W/m2
05:04 3.3 °C 2.6 °C 1024.0 hPa Calm   4.8 km/h 95% 0.0 mm 0 W/m2
05:09 3.3 °C 2.6 °C 1024.0 hPa Calm   1.6 km/h 95% 0.0 mm 0 W/m2
05:14 3.4 °C 2.7 °C 1024.0 hPa Calm   3.2 km/h 95% 0.0 mm 0 W/m2
05:19 3.6 °C 2.9 °C 1024.0 hPa Calm     95% 0.0 mm 0 W/m2
05:24 3.7 °C 3 °C 1024.0 hPa Calm   1.6 km/h 95% 0.0 mm 0 W/m2
05:29 3.8 °C 2.9 °C 1024.0 hPa SSW 3.2 km/h 3.2 km/h 94% 0.0 mm 0 W/m2
05:34 3.9 °C 3 °C 1024.0 hPa ESE 3.2 km/h 4.8 km/h 94% 0.0 mm 0 W/m2
05:39 4 °C 3.1 °C 1024.0 hPa ESE 3.2 km/h 3.2 km/h 94% 0.0 mm 0 W/m2
05:44 4.2 °C 3.2 °C 1023.7 hPa Calm   3.2 km/h 93% 0.0 mm 0 W/m2
05:49 4.3 °C 3.3 °C 1023.7 hPa NE 8 km/h 8 km/h 93% 0.0 mm 0 W/m2
05:54 4.4 °C 3.2 °C 1023.7 hPa Calm   1.6 km/h 92% 0.0 mm 0 W/m2
05:59 4.6 °C 3.3 °C 1023.7 hPa ENE 8 km/h 8 km/h 91% 0.0 mm 0 W/m2
06:04 4.6 °C 3.3 °C 1023.7 hPa Calm   6.4 km/h 91% 0.0 mm 0 W/m2
06:09 4.7 °C 3.2 °C 1023.7 hPa Calm   3.2 km/h 90% 0.0 mm 0 W/m2
06:14 4.7 °C 3.2 °C 1023.7 hPa SE 1.4 km/h 6.4 km/h 90% 0.0 mm 0 W/m2
06:19 4.7 °C 3.2 °C 1023.7 hPa East 1.4 km/h 3.2 km/h 90% 0.0 mm 0 W/m2
06:29 4.7 °C 3 °C 1023.7 hPa East 9.7 km/h 9.7 km/h 89% 0.0 mm 0 W/m2
06:34 4.8 °C 3.1 °C 1023.4 hPa ENE 4.7 km/h 6.4 km/h 89% 0.0 mm 0 W/m2
06:39 4.8 °C 3.1 °C 1023.4 hPa NNE 3.2 km/h 4.8 km/h 89% 0.0 mm 0 W/m2
06:44 4.8 °C 3.1 °C 1023.4 hPa ENE 6.4 km/h 11.3 km/h 89% 0.0 mm 0 W/m2
06:49 4.8 °C 3 °C 1023.4 hPa ESE 3.2 km/h 4.8 km/h 88% 0.0 mm 0 W/m2
06:54 4.8 °C 3 °C 1023.4 hPa East 1.4 km/h 11.3 km/h 88% 0.0 mm 0 W/m2
06:59 4.8 °C 3 °C 1023.4 hPa SE 3.2 km/h 4.8 km/h 88% 0.0 mm 0 W/m2
07:04 4.9 °C 3.1 °C 1023.4 hPa East 3.2 km/h 4.8 km/h 88% 0.0 mm 0 W/m2
07:09 4.8 °C 3 °C 1023.0 hPa ENE 6.4 km/h 9.7 km/h 88% 0.0 mm 0 W/m2
07:14 4.9 °C 3.1 °C 1023.0 hPa SSE 1.4 km/h 4.8 km/h 88% 0.0 mm 0 W/m2
07:19 4.8 °C 3 °C 1023.0 hPa Calm   8 km/h 88% 0.0 mm 0 W/m2
07:24 4.8 °C 3 °C 1023.0 hPa ENE 3.2 km/h 6.4 km/h 88% 0.0 mm 0 W/m2
07:29 4.8 °C 3 °C 1023.0 hPa ESE 3.2 km/h 4.8 km/h 88% 0.0 mm 0 W/m2
07:34 4.7 °C 2.9 °C 1023.0 hPa East 1.4 km/h 4.8 km/h 88% 0.0 mm 0 W/m2
07:39 4.7 °C 2.7 °C 1023.0 hPa Calm   1.6 km/h 87% 0.0 mm 0 W/m2
07:44 4.7 °C 2.7 °C 1023.0 hPa ENE 3.2 km/h 4.8 km/h 87% 0.0 mm 0 W/m2
07:49 4.6 °C 2.6 °C 1023.0 hPa ESE 1.4 km/h 4.8 km/h 87% 0.0 mm 0 W/m2
07:54 4.6 °C 2.6 °C 1023.0 hPa ESE 3.2 km/h 3.2 km/h 87% 0.0 mm 0 W/m2
07:59 4.6 °C 2.6 °C 1023.0 hPa ESE 3.2 km/h 3.2 km/h 87% 0.0 mm 0 W/m2
08:04 4.5 °C 2.7 °C 1023.0 hPa East 1.4 km/h 6.4 km/h 88% 0.0 mm 7 W/m2
08:09 4.4 °C 2.6 °C 1023.0 hPa East 1.4 km/h 1.6 km/h 88% 0.0 mm 11 W/m2
08:14 4.4 °C 2.6 °C 1022.7 hPa ESE 1.4 km/h 4.8 km/h 88% 0.0 mm 14 W/m2
08:19 4.3 °C 2.5 °C 1022.7 hPa East 1.4 km/h 3.2 km/h 88% 0.0 mm 18 W/m2
08:24 4.3 °C 2.5 °C 1023.0 hPa SE 1.4 km/h 4.8 km/h 88% 0.0 mm 21 W/m2
08:29 4.3 °C 2.5 °C 1023.0 hPa ESE 3.2 km/h 4.8 km/h 88% 0.0 mm 23 W/m2
08:34 4.3 °C 2.5 °C 1023.0 hPa Calm   3.2 km/h 88% 0.0 mm 26 W/m2
08:39 4.3 °C 2.5 °C 1022.7 hPa ENE 4.7 km/h 6.4 km/h 88% 0.0 mm 30 W/m2
08:44 4.3 °C 2.5 °C 1022.7 hPa Calm   3.2 km/h 88% 0.0 mm 37 W/m2
08:49 4.3 °C 2.5 °C 1022.7 hPa ESE 6.4 km/h 8 km/h 88% 0.0 mm 42 W/m2
08:54 4.4 °C 2.6 °C 1022.7 hPa East 3.2 km/h 4.8 km/h 88% 0.0 mm 49 W/m2
08:59 4.5 °C 2.7 °C 1022.7 hPa ENE 3.2 km/h 4.8 km/h 88% 0.0 mm 56 W/m2
09:04 4.6 °C 2.8 °C 1022.7 hPa East 1.4 km/h 1.6 km/h 88% 0.0 mm 42 W/m2
09:09 4.6 °C 2.6 °C 1022.7 hPa ESE 3.2 km/h 4.8 km/h 87% 0.0 mm 60 W/m2
09:14 4.7 °C 2.7 °C 1022.7 hPa Calm   9.7 km/h 87% 0.0 mm 28 W/m2
09:19 4.7 °C 2.6 °C 1022.4 hPa East 3.2 km/h 6.4 km/h 86% 0.0 mm 37 W/m2
09:24 4.7 °C 2.6 °C 1022.4 hPa Calm   9.7 km/h 86% 0.0 mm 58 W/m2
09:29 4.8 °C 2.7 °C 1022.4 hPa East 6.4 km/h 6.4 km/h 86% 0.0 mm 77 W/m2
09:34 4.8 °C 2.7 °C 1022.4 hPa SE 4.7 km/h 6.4 km/h 86% 0.0 mm 81 W/m2
09:39 4.9 °C 2.8 °C 1022.4 hPa NE 3.2 km/h 11.3 km/h 86% 0.0 mm 81 W/m2
09:44 4.9 °C 2.8 °C 1022.4 hPa Calm   6.4 km/h 86% 0.0 mm 56 W/m2
09:49 4.9 °C 2.8 °C 1022.4 hPa ESE 4.7 km/h 11.3 km/h 86% 0.0 mm 56 W/m2
09:54 5 °C 2.9 °C 1022.0 hPa ESE 1.4 km/h 6.4 km/h 86% 0.0 mm 44 W/m2
09:59 5 °C 2.7 °C 1022.0 hPa NE 3.2 km/h 9.7 km/h 85% 0.0 mm 51 W/m2
10:04 5 °C 2.7 °C 1022.0 hPa ESE 13 km/h 12.9 km/h 85% 0.0 mm 76 W/m2
10:09 5 °C 2.7 °C 1022.0 hPa ESE 3.2 km/h 11.3 km/h 85% 0.0 mm 107 W/m2
10:14 5.1 °C 2.8 °C 1021.7 hPa East 4.7 km/h 9.7 km/h 85% 0.0 mm 97 W/m2
10:19 5.2 °C 2.9 °C 1021.7 hPa Calm   4.8 km/h 85% 0.0 mm 121 W/m2
10:24 5.3 °C 3 °C 1021.7 hPa ESE 3.2 km/h 14.5 km/h 85% 0.0 mm 118 W/m2
10:29 5.4 °C 2.9 °C 1021.7 hPa East 4.7 km/h 8 km/h 84% 0.0 mm 113 W/m2
10:34 5.5 °C 2.8 °C 1021.7 hPa ESE 1.4 km/h 16.1 km/h 83% 0.0 mm 107 W/m2
10:39 5.6 °C 3.1 °C 1021.3 hPa SE 13 km/h 14.5 km/h 84% 0.0 mm 107 W/m2
10:44 5.7 °C 3 °C 1021.3 hPa ESE 6.4 km/h 14.5 km/h 83% 0.0 mm 111 W/m2
10:49 5.7 °C 2.9 °C 1021.3 hPa ESE 4.7 km/h 12.9 km/h 82% 0.0 mm 72 W/m2
10:54 5.6 °C 2.8 °C 1021.3 hPa ESE 4.7 km/h 19.3 km/h 82% 0.0 mm 42 W/m2
10:59 5.4 °C 2.6 °C 1021.3 hPa ESE 9.7 km/h 12.9 km/h 82% 0.0 mm 58 W/m2
11:04 5.3 °C 2.5 °C 1021.3 hPa ENE 4.7 km/h 17.7 km/h 82% 0.0 mm 44 W/m2
11:09 5.3 °C 2.5 °C 1021.0 hPa SE 13 km/h 14.5 km/h 82% 0.0 mm 62 W/m2
11:14 5.3 °C 2.5 °C 1021.0 hPa East 4.7 km/h 14.5 km/h 82% 0.0 mm 58 W/m2
11:19 5.3 °C 2.6 °C 1021.0 hPa East 4.7 km/h 11.3 km/h 83% 0.0 mm 47 W/m2
11:24 5.4 °C 2.6 °C 1021.0 hPa ENE 1.4 km/h 4.8 km/h 82% 0.0 mm 46 W/m2
11:29 5.6 °C 2.8 °C 1020.7 hPa NE 3.2 km/h 3.2 km/h 82% 0.0 mm 84 W/m2
11:34 5.6 °C 2.6 °C 1020.7 hPa East 1.4 km/h 12.9 km/h 81% 0.0 mm 95 W/m2
11:39 5.7 °C 2.7 °C 1020.7 hPa NNE 1.4 km/h 6.4 km/h 81% 0.0 mm 76 W/m2
11:44 5.7 °C 2.5 °C 1020.7 hPa SSE 3.2 km/h 12.9 km/h 80% 0.0 mm 95 W/m2
11:49 5.8 °C 2.6 °C 1020.7 hPa East 4.7 km/h 16.1 km/h 80% 0.0 mm 60 W/m2
11:54 5.8 °C 2.6 °C 1020.7 hPa NE 3.2 km/h 12.9 km/h 80% 0.0 mm 98 W/m2
12:04 6 °C 2.8 °C 1020.3 hPa ENE 6.4 km/h 6.4 km/h 80% 0.0 mm 91 W/m2
12:09 6 °C 2.6 °C 1020.3 hPa NE 6.4 km/h 11.3 km/h 79% 0.0 mm 91 W/m2
12:14 6.1 °C 2.7 °C 1020.0 hPa NW 6.4 km/h 11.3 km/h 79% 0.0 mm 70 W/m2
12:19 6.1 °C 2.7 °C 1020.0 hPa NE 1.4 km/h 8 km/h 79% 0.0 mm 54 W/m2
12:24 6.2 °C 2.6 °C 1020.0 hPa East 9.7 km/h 16.1 km/h 78% 0.0 mm 62 W/m2
12:34 6.2 °C 2.6 °C 1019.6 hPa ENE 4.7 km/h 8 km/h 78% 0.0 mm 53 W/m2
12:39 6.3 °C 2.7 °C 1019.6 hPa ESE 3.2 km/h 9.7 km/h 78% 0.0 mm 62 W/m2
12:44 6.3 °C 2.6 °C 1019.6 hPa East 1.4 km/h 12.9 km/h 77% 0.0 mm 47 W/m2
12:49 6.3 °C 2.6 °C 1019.6 hPa NE 3.2 km/h 9.7 km/h 77% 0.0 mm 47 W/m2
12:54 6.4 °C 2.7 °C 1019.6 hPa East 1.4 km/h 8 km/h 77% 0.0 mm 49 W/m2
12:59 6.4 °C 2.7 °C 1019.3 hPa ENE 6.4 km/h 9.7 km/h 77% 0.0 mm 33 W/m2
13:04 6.4 °C 2.7 °C 1019.3 hPa ESE 1.4 km/h 6.4 km/h 77% 0.0 mm 32 W/m2
13:09 6.4 °C 2.7 °C 1019.3 hPa SE 1.4 km/h 8 km/h 77% 0.0 mm 39 W/m2
13:14 6.4 °C 2.5 °C 1019.0 hPa ESE 3.2 km/h 6.4 km/h 76% 0.0 mm 39 W/m2
13:19 6.5 °C 2.6 °C 1019.0 hPa ESE 4.7 km/h 9.7 km/h 76% 0.0 mm 32 W/m2
13:25 6.5 °C 2.6 °C 1019.0 hPa NE 3.2 km/h 4.8 km/h 76% 0.0 mm 30 W/m2
13:30 6.6 °C 2.7 °C 1019.0 hPa WNW 3.2 km/h 8 km/h 76% 0.0 mm 30 W/m2
13:40 6.7 °C 2.6 °C 1018.6 hPa NNE 1.4 km/h 4.8 km/h 75% 0.0 mm 28 W/m2
13:45 6.8 °C 2.5 °C 1018.6 hPa NE 3.2 km/h 11.3 km/h 74% 0.0 mm 32 W/m2
13:50 6.8 °C 2.5 °C 1018.6 hPa ENE 3.2 km/h 8 km/h 74% 0.0 mm 28 W/m2
13:55 6.8 °C 2.5 °C 1018.6 hPa NNE 1.4 km/h 9.7 km/h 74% 0.0 mm 39 W/m2
14:00 6.8 °C 2.5 °C 1018.3 hPa Calm   6.4 km/h 74% 0.0 mm 28 W/m2
14:05 6.8 °C 2.5 °C 1018.3 hPa ENE 3.2 km/h 8 km/h 74% 0.0 mm 26 W/m2
14:10 6.8 °C 2.5 °C 1018.3 hPa ENE 4.7 km/h 6.4 km/h 74% 0.0 mm 26 W/m2
14:15 6.8 °C 2.3 °C 1018.0 hPa East 6.4 km/h 11.3 km/h 73% 0.0 mm 26 W/m2
14:20 6.8 °C 2.3 °C 1018.0 hPa ESE 6.4 km/h 12.9 km/h 73% 0.0 mm 25 W/m2
14:25 6.7 °C 2 °C 1018.0 hPa East 7.9 km/h 16.1 km/h 72% 0.0 mm 25 W/m2
14:35 6.6 °C 1.9 °C 1017.6 hPa ESE 3.2 km/h 16.1 km/h 72% 0.0 mm 23 W/m2
14:40 6.5 °C 1.8 °C 1017.6 hPa Calm   4.8 km/h 72% 0.0 mm 23 W/m2
14:45 6.4 °C 1.9 °C 1017.6 hPa ESE 11.1 km/h 11.3 km/h 73% 0.0 mm 23 W/m2
14:50 6.3 °C 1.6 °C 1017.6 hPa ESE 3.2 km/h 12.9 km/h 72% 0.0 mm 21 W/m2
14:55 6.3 °C 1.6 °C 1017.6 hPa East 4.7 km/h 8 km/h 72% 0.0 mm 21 W/m2
15:00 6.4 °C 1.7 °C 1017.6 hPa ENE 1.4 km/h 12.9 km/h 72% 0.0 mm 21 W/m2
15:05 6.4 °C 1.7 °C 1017.3 hPa ESE 3.2 km/h 9.7 km/h 72% 0.0 mm 21 W/m2
15:10 6.4 °C 1.5 °C 1017.3 hPa ESE 3.2 km/h 6.4 km/h 71% 0.0 mm 21 W/m2
15:15 6.4 °C 1.5 °C 1017.3 hPa ENE 4.7 km/h 11.3 km/h 71% 0.0 mm 21 W/m2
15:20 6.4 °C 1.7 °C 1016.9 hPa East 1.4 km/h 4.8 km/h 72% 0.0 mm 19 W/m2
15:25 6.3 °C 1.6 °C 1016.9 hPa East 4.7 km/h 8 km/h 72% 0.0 mm 19 W/m2
15:30 6.2 °C 1.7 °C 1016.9 hPa ESE 1.4 km/h 3.2 km/h 73% 0.0 mm 19 W/m2
15:35 6.1 °C 1.8 °C 1016.9 hPa ESE 4.7 km/h 6.4 km/h 74% 0.0 mm 19 W/m2
15:40 6.1 °C 1.8 °C 1016.9 hPa ENE 3.2 km/h 6.4 km/h 74% 0.0 mm 18 W/m2
15:45 6.1 °C 1.8 °C 1016.9 hPa East 1.4 km/h 6.4 km/h 74% 0.0 mm 18 W/m2
15:50 6 °C 1.7 °C 1016.9 hPa Calm   11.3 km/h 74% 0.0 mm 18 W/m2
16:00 5.9 °C 1.6 °C 1016.6 hPa Calm   3.2 km/h 74% 0.0 mm 16 W/m2
16:05 5.8 °C 1.7 °C 1016.6 hPa Calm     75% 0.0 mm 14 W/m2
16:10 5.7 °C 1.6 °C 1016.6 hPa East 3.2 km/h 4.8 km/h 75% 0.0 mm 14 W/m2
16:15 5.6 °C 1.5 °C 1016.6 hPa East 3.2 km/h 4.8 km/h 75% 0.0 mm 12 W/m2
16:20 5.6 °C 1.7 °C 1016.6 hPa Calm   4.8 km/h 76% 0.0 mm 11 W/m2
16:25 5.5 °C 1.6 °C 1016.6 hPa East 1.4 km/h 3.2 km/h 76% 0.0 mm 11 W/m2
16:35 5.3 °C 1.6 °C 1016.6 hPa East 1.4 km/h 4.8 km/h 77% 0.0 mm 7 W/m2
16:40 5.1 °C 1.6 °C 1016.6 hPa Calm     78% 0.0 mm 5 W/m2
16:45 4.9 °C 1.4 °C 1016.6 hPa Calm   4.8 km/h 78% 0.0 mm 0 W/m2
16:51 4.8 °C 1.3 °C 1016.6 hPa Calm     78% 0.0 mm 0 W/m2
16:56 4.6 °C 1.3 °C 1016.6 hPa Calm     79% 0.0 mm 0 W/m2
17:01 4.4 °C 1.3 °C 1016.6 hPa Calm     80% 0.0 mm 0 W/m2
17:06 4.4 °C 1.3 °C 1016.6 hPa Calm     80% 0.0 mm 0 W/m2
17:11 4.1 °C 1.1 °C 1016.3 hPa Calm   1.6 km/h 81% 0.0 mm 0 W/m2
17:16 3.9 °C 0.9 °C 1016.3 hPa Calm   1.6 km/h 81% 0.0 mm 0 W/m2
17:21 3.8 °C 1 °C 1016.3 hPa Calm     82% 0.0 mm 0 W/m2
17:26 3.7 °C 0.9 °C 1016.3 hPa East 1.4 km/h 3.2 km/h 82% 0.0 mm 0 W/m2
17:31 3.6 °C 1 °C 1016.3 hPa Calm     83% 0.0 mm 0 W/m2
17:36 3.4 °C 0.8 °C 1016.3 hPa Calm   3.2 km/h 83% 0.0 mm 0 W/m2
17:41 3.3 °C 0.9 °C 1016.3 hPa Calm   3.2 km/h 84% 0.0 mm 0 W/m2
17:46 3.2 °C 0.8 °C 1015.9 hPa Calm   1.6 km/h 84% 0.0 mm 0 W/m2
17:51 3.2 °C 0.8 °C 1015.9 hPa Calm   1.6 km/h 84% 0.0 mm 0 W/m2
17:56 3.1 °C 0.8 °C 1015.9 hPa Calm     85% 0.0 mm 0 W/m2
18:01 3 °C 0.7 °C 1015.9 hPa East 1.4 km/h 1.6 km/h 85% 0.0 mm 0 W/m2
18:06 2.9 °C 0.6 °C 1015.9 hPa ESE 3.2 km/h 3.2 km/h 85% 0.0 mm 0 W/m2
18:11 2.9 °C 0.6 °C 1015.9 hPa ENE 1.4 km/h 1.6 km/h 85% 0.0 mm 0 W/m2
18:16 2.8 °C 0.5 °C 1015.9 hPa Calm     85% 0.0 mm 0 W/m2
18:21 2.8 °C 0.5 °C 1015.9 hPa Calm     85% 0.0 mm 0 W/m2
18:26 2.7 °C 0.4 °C 1015.9 hPa Calm     85% 0.0 mm 0 W/m2
18:31 2.5 °C 0.2 °C 1015.6 hPa Calm     85% 0.0 mm 0 W/m2
18:36 2.4 °C 0.3 °C 1015.6 hPa Calm     86% 0.0 mm 0 W/m2
18:41 2.3 °C 0.2 °C 1015.6 hPa Calm     86% 0.0 mm 0 W/m2
18:46 2.1 °C 0 °C 1015.6 hPa Calm     86% 0.0 mm 0 W/m2
18:51 2.1 °C 0.2 °C 1015.6 hPa Calm   1.6 km/h 87% 0.0 mm 0 W/m2
18:56 1.9 °C 0 °C 1015.6 hPa Calm     87% 0.0 mm 0 W/m2
19:01 1.9 °C 0 °C 1015.6 hPa Calm     87% 0.0 mm 0 W/m2
19:06 1.8 °C 0 °C 1015.2 hPa Calm   1.6 km/h 88% 0.0 mm 0 W/m2
19:11 1.7 °C -0.1 °C 1015.2 hPa Calm     88% 0.0 mm 0 W/m2
19:16 1.6 °C -0.2 °C 1015.2 hPa ESE 1.6 km/h 1.6 km/h 88% 0.0 mm 0 W/m2
19:21 1.4 °C -0.4 °C 1015.2 hPa Calm   1.6 km/h 88% 0.0 mm 0 W/m2
19:26 1.3 °C -0.5 °C 1015.2 hPa Calm     88% 0.0 mm 0 W/m2
19:31 1.2 °C -0.4 °C 1014.9 hPa Calm   1.6 km/h 89% 0.0 mm 0 W/m2
19:36 1.2 °C -0.4 °C 1014.9 hPa Calm     89% 0.0 mm 0 W/m2
19:41 1.1 °C -0.5 °C 1014.9 hPa Calm     89% 0.0 mm 0 W/m2
19:46 0.9 °C -0.6 °C 1014.9 hPa Calm     90% 0.0 mm 0 W/m2
19:51 0.8 °C -0.7 °C 1014.9 hPa Calm     90% 0.0 mm 0 W/m2
19:56 0.7 °C -0.8 °C 1014.9 hPa Calm     90% 0.0 mm 0 W/m2
20:01 0.6 °C -0.9 °C 1014.9 hPa Calm     90% 0.0 mm 0 W/m2
20:06 0.5 °C -0.9 °C 1014.6 hPa Calm     90% 0.0 mm 0 W/m2
20:11 0.4 °C -0.9 °C 1014.6 hPa Calm     91% 0.0 mm 0 W/m2
20:16 0.4 °C -0.9 °C 1014.6 hPa Calm     91% 0.0 mm 0 W/m2
20:21 0.4 °C -0.9 °C 1014.6 hPa Calm     91% 0.0 mm 0 W/m2
20:26 0.4 °C -0.9 °C 1014.6 hPa Calm     91% 0.0 mm 0 W/m2
20:31 0.4 °C -0.9 °C 1014.6 hPa Calm     91% 0.0 mm 0 W/m2
20:36 0.3 °C -0.8 °C 1014.6 hPa Calm     92% 0.0 mm 0 W/m2
20:41 0.2 °C -0.9 °C 1014.2 hPa Calm     92% 0.0 mm 0 W/m2
20:46 0.2 °C -0.9 °C 1014.2 hPa Calm     92% 0.0 mm 0 W/m2
20:51 0.1 °C -1 °C 1014.2 hPa Calm     92% 0.0 mm 0 W/m2
20:56 0 °C -1.1 °C 1014.2 hPa Calm     92% 0.0 mm 0 W/m2
21:01 -0.1 °C -1.2 °C 1014.2 hPa Calm     92% 0.0 mm 0 W/m2
21:06 -0.1 °C -1.2 °C 1014.2 hPa Calm     92% 0.0 mm 0 W/m2
21:11 -0.1 °C -1.2 °C 1014.2 hPa Calm     92% 0.0 mm 0 W/m2
21:16 -0.1 °C -1.1 °C 1014.2 hPa Calm     93% 0.0 mm 0 W/m2
21:21 -0.1 °C -1.1 °C 1013.9 hPa Calm     93% 0.0 mm 0 W/m2
21:26 -0.1 °C -1.1 °C 1013.9 hPa Calm     93% 0.0 mm 0 W/m2
21:31 -0.1 °C -1.1 °C 1013.9 hPa Calm     93% 0.0 mm 0 W/m2
21:36 -0.2 °C -1.2 °C 1013.9 hPa Calm     93% 0.0 mm 0 W/m2
21:41 -0.3 °C -1.3 °C 1013.5 hPa Calm     93% 0.0 mm 0 W/m2
21:46 -0.3 °C -1.3 °C 1013.5 hPa Calm     93% 0.0 mm 0 W/m2
21:51 -0.4 °C -1.4 °C 1013.5 hPa Calm     93% 0.0 mm 0 W/m2
21:56 -0.5 °C -1.5 °C 1013.5 hPa Calm     93% 0.0 mm 0 W/m2
22:01 -0.5 °C -1.5 °C 1013.5 hPa Calm     93% 0.0 mm 0 W/m2
22:06 -0.5 °C -1.5 °C 1013.5 hPa Calm     93% 0.0 mm 0 W/m2
22:11 -0.6 °C -1.6 °C 1013.5 hPa Calm     93% 0.0 mm 0 W/m2
22:16 -0.6 °C -1.6 °C 1013.5 hPa Calm     93% 0.0 mm 0 W/m2
22:21 -0.6 °C -1.6 °C 1013.5 hPa Calm     93% 0.0 mm 0 W/m2
22:26 -0.7 °C -1.7 °C 1013.5 hPa Calm     93% 0.0 mm 0 W/m2
22:31 -0.7 °C -1.7 °C 1013.5 hPa Calm     93% 0.0 mm 0 W/m2
22:36 -0.8 °C -1.8 °C 1013.5 hPa Calm     93% 0.0 mm 0 W/m2
22:41 -0.8 °C -1.6 °C 1013.5 hPa Calm     94% 0.0 mm 0 W/m2
22:46 -0.9 °C -1.9 °C 1013.5 hPa Calm     93% 0.0 mm 0 W/m2
22:51 -0.9 °C -1.7 °C 1013.5 hPa Calm     94% 0.0 mm 0 W/m2
22:56 -0.9 °C -1.7 °C 1013.5 hPa Calm     94% 0.0 mm 0 W/m2
23:01 -0.9 °C -1.7 °C 1013.5 hPa Calm     94% 0.0 mm 0 W/m2
23:07 -1 °C -1.8 °C 1013.2 hPa Calm     94% 0.0 mm 0 W/m2
23:12 -1 °C -1.8 °C 1013.2 hPa Calm     94% 0.0 mm 0 W/m2
23:17 -1.1 °C -1.9 °C 1013.2 hPa Calm     94% 0.0 mm 0 W/m2
23:22 -1.1 °C -1.9 °C 1013.2 hPa Calm     94% 0.0 mm 0 W/m2
23:27 -1.1 °C -1.9 °C 1013.2 hPa Calm     94% 0.0 mm 0 W/m2
23:32 -1.1 °C -1.9 °C 1013.2 hPa Calm     94% 0.0 mm 0 W/m2
23:37 -1.1 °C -1.9 °C 1012.9 hPa Calm     94% 0.0 mm 0 W/m2
23:42 -1.1 °C -1.9 °C 1012.9 hPa Calm     94% 0.0 mm 0 W/m2
23:47 -1.1 °C -1.9 °C 1012.9 hPa Calm     94% 0.0 mm 0 W/m2
23:52 -1.2 °C -2 °C 1012.9 hPa Calm     94% 0.0 mm 0 W/m2
23:57 -1.2 °C -2 °C 1012.9 hPa Calm     94% 0.0 mm 0 W/m2
Juneau County Weather
Compliments of Weather Underground - 4 mb